sensor_id;sensor_type;location;lat;lon;timestamp;temperature;humidity
3069;DHT22;1545;51.728;8.796;2023-07-08T00:01:54;20.50;68.30
3069;DHT22;1545;51.728;8.796;2023-07-08T00:04:20;20.40;68.80
3069;DHT22;1545;51.728;8.796;2023-07-08T00:06:46;20.30;69.40
3069;DHT22;1545;51.728;8.796;2023-07-08T00:09:11;20.20;69.60
3069;DHT22;1545;51.728;8.796;2023-07-08T00:11:40;20.10;69.70
3069;DHT22;1545;51.728;8.796;2023-07-08T00:14:06;20.10;69.80
3069;DHT22;1545;51.728;8.796;2023-07-08T00:16:31;20.10;69.30
3069;DHT22;1545;51.728;8.796;2023-07-08T00:18:57;20.20;69.40
3069;DHT22;1545;51.728;8.796;2023-07-08T00:21:22;20.20;69.00
3069;DHT22;1545;51.728;8.796;2023-07-08T00:23:49;20.20;68.80
3069;DHT22;1545;51.728;8.796;2023-07-08T00:26:23;20.20;68.50
3069;DHT22;1545;51.728;8.796;2023-07-08T00:28:50;20.30;68.70
3069;DHT22;1545;51.728;8.796;2023-07-08T00:31:15;20.20;68.50
3069;DHT22;1545;51.728;8.796;2023-07-08T00:33:41;20.20;68.70
3069;DHT22;1545;51.728;8.796;2023-07-08T00:36:14;20.20;68.60
3069;DHT22;1545;51.728;8.796;2023-07-08T00:38:40;20.20;68.20
3069;DHT22;1545;51.728;8.796;2023-07-08T00:41:14;20.20;68.10
3069;DHT22;1545;51.728;8.796;2023-07-08T00:43:52;20.20;68.10
3069;DHT22;1545;51.728;8.796;2023-07-08T00:49:55;20.20;67.70
3069;DHT22;1545;51.728;8.796;2023-07-08T00:52:26;20.20;67.60
3069;DHT22;1545;51.728;8.796;2023-07-08T00:54:58;20.20;67.70
3069;DHT22;1545;51.728;8.796;2023-07-08T00:57:30;20.20;67.50
3069;DHT22;1545;51.728;8.796;2023-07-08T01:00:01;20.20;67.50
3069;DHT22;1545;51.728;8.796;2023-07-08T01:02:29;20.20;67.70
3069;DHT22;1545;51.728;8.796;2023-07-08T01:05:01;20.20;67.80
3069;DHT22;1545;51.728;8.796;2023-07-08T01:07:28;20.20;67.80
3069;DHT22;1545;51.728;8.796;2023-07-08T01:10:19;20.20;67.90
3069;DHT22;1545;51.728;8.796;2023-07-08T01:12:52;20.20;67.90
3069;DHT22;1545;51.728;8.796;2023-07-08T01:15:20;20.10;68.30
3069;DHT22;1545;51.728;8.796;2023-07-08T01:17:46;20.00;68.40
3069;DHT22;1545;51.728;8.796;2023-07-08T01:20:12;20.10;68.10
3069;DHT22;1545;51.728;8.796;2023-07-08T01:22:41;20.10;68.10
3069;DHT22;1545;51.728;8.796;2023-07-08T01:25:08;20.00;68.40
3069;DHT22;1545;51.728;8.796;2023-07-08T01:27:37;20.00;68.50
3069;DHT22;1545;51.728;8.796;2023-07-08T01:30:06;20.00;68.40
3069;DHT22;1545;51.728;8.796;2023-07-08T01:32:34;19.90;68.60
3069;DHT22;1545;51.728;8.796;2023-07-08T01:35:02;19.90;68.40
3069;DHT22;1545;51.728;8.796;2023-07-08T01:38:00;19.90;68.60
3069;DHT22;1545;51.728;8.796;2023-07-08T01:42:55;19.80;68.70
3069;DHT22;1545;51.728;8.796;2023-07-08T01:45:23;19.80;68.30
3069;DHT22;1545;51.728;8.796;2023-07-08T01:47:58;19.80;68.50
3069;DHT22;1545;51.728;8.796;2023-07-08T01:50:25;19.80;68.50
3069;DHT22;1545;51.728;8.796;2023-07-08T01:52:52;19.80;68.50
3069;DHT22;1545;51.728;8.796;2023-07-08T01:55:25;19.80;68.70
3069;DHT22;1545;51.728;8.796;2023-07-08T01:57:54;19.70;69.00
3069;DHT22;1545;51.728;8.796;2023-07-08T02:00:20;19.70;68.80
3069;DHT22;1545;51.728;8.796;2023-07-08T02:02:47;19.70;68.90
3069;DHT22;1545;51.728;8.796;2023-07-08T02:05:12;19.70;68.40
3069;DHT22;1545;51.728;8.796;2023-07-08T02:07:38;19.70;68.40
3069;DHT22;1545;51.728;8.796;2023-07-08T02:10:04;19.70;68.60
3069;DHT22;1545;51.728;8.796;2023-07-08T02:12:30;19.70;68.30
3069;DHT22;1545;51.728;8.796;2023-07-08T02:14:55;19.70;68.30
3069;DHT22;1545;51.728;8.796;2023-07-08T02:17:21;19.70;68.10
3069;DHT22;1545;51.728;8.796;2023-07-08T02:19:46;19.70;68.00
3069;DHT22;1545;51.728;8.796;2023-07-08T02:22:12;19.70;67.90
3069;DHT22;1545;51.728;8.796;2023-07-08T02:24:37;19.70;67.80
3069;DHT22;1545;51.728;8.796;2023-07-08T02:27:03;19.70;67.50
3069;DHT22;1545;51.728;8.796;2023-07-08T02:29:28;19.80;67.50
3069;DHT22;1545;51.728;8.796;2023-07-08T02:31:54;19.80;67.20
3069;DHT22;1545;51.728;8.796;2023-07-08T02:34:20;19.80;67.20
3069;DHT22;1545;51.728;8.796;2023-07-08T02:36:46;19.70;67.30
3069;DHT22;1545;51.728;8.796;2023-07-08T02:39:12;19.70;67.30
3069;DHT22;1545;51.728;8.796;2023-07-08T02:41:37;19.70;67.20
3069;DHT22;1545;51.728;8.796;2023-07-08T02:44:03;19.70;67.10
3069;DHT22;1545;51.728;8.796;2023-07-08T02:46:28;19.70;67.30
3069;DHT22;1545;51.728;8.796;2023-07-08T02:48:54;19.70;67.20
3069;DHT22;1545;51.728;8.796;2023-07-08T02:51:19;19.70;67.30
3069;DHT22;1545;51.728;8.796;2023-07-08T02:53:45;19.70;67.20
3069;DHT22;1545;51.728;8.796;2023-07-08T02:56:10;19.70;67.20
3069;DHT22;1545;51.728;8.796;2023-07-08T02:58:36;19.60;67.20
3069;DHT22;1545;51.728;8.796;2023-07-08T03:01:01;19.60;67.20
3069;DHT22;1545;51.728;8.796;2023-07-08T03:03:27;19.60;67.20
3069;DHT22;1545;51.728;8.796;2023-07-08T03:06:01;19.60;67.30
3069;DHT22;1545;51.728;8.796;2023-07-08T03:08:28;19.60;67.10
3069;DHT22;1545;51.728;8.796;2023-07-08T03:10:59;19.60;67.20
3069;DHT22;1545;51.728;8.796;2023-07-08T03:13:25;19.60;67.30
3069;DHT22;1545;51.728;8.796;2023-07-08T03:15:51;19.50;67.50
3069;DHT22;1545;51.728;8.796;2023-07-08T03:18:17;19.50;67.60
3069;DHT22;1545;51.728;8.796;2023-07-08T03:20:43;19.50;67.60
3069;DHT22;1545;51.728;8.796;2023-07-08T03:23:12;19.40;67.80
3069;DHT22;1545;51.728;8.796;2023-07-08T03:25:38;19.50;67.60
3069;DHT22;1545;51.728;8.796;2023-07-08T03:28:04;19.50;67.50
3069;DHT22;1545;51.728;8.796;2023-07-08T03:30:33;19.60;67.10
3069;DHT22;1545;51.728;8.796;2023-07-08T03:32:59;19.60;66.80
3069;DHT22;1545;51.728;8.796;2023-07-08T03:35:25;19.60;66.80
3069;DHT22;1545;51.728;8.796;2023-07-08T03:37:52;19.60;66.80
3069;DHT22;1545;51.728;8.796;2023-07-08T03:40:18;19.60;67.10
3069;DHT22;1545;51.728;8.796;2023-07-08T03:42:44;19.60;67.00
3069;DHT22;1545;51.728;8.796;2023-07-08T03:45:09;19.60;67.20
3069;DHT22;1545;51.728;8.796;2023-07-08T03:47:35;19.60;66.90
3069;DHT22;1545;51.728;8.796;2023-07-08T03:50:00;19.60;66.90
3069;DHT22;1545;51.728;8.796;2023-07-08T03:52:26;19.60;66.90
3069;DHT22;1545;51.728;8.796;2023-07-08T03:54:51;19.70;67.00
3069;DHT22;1545;51.728;8.796;2023-07-08T03:57:17;19.70;66.80
3069;DHT22;1545;51.728;8.796;2023-07-08T03:59:43;19.80;66.90
3069;DHT22;1545;51.728;8.796;2023-07-08T04:02:11;19.80;66.00
3069;DHT22;1545;51.728;8.796;2023-07-08T04:04:36;19.80;66.20
3069;DHT22;1545;51.728;8.796;2023-07-08T04:07:04;19.80;66.40
3069;DHT22;1545;51.728;8.796;2023-07-08T04:09:29;19.90;66.30
3069;DHT22;1545;51.728;8.796;2023-07-08T04:11:55;20.00;65.80
3069;DHT22;1545;51.728;8.796;2023-07-08T04:14:21;20.10;65.50
3069;DHT22;1545;51.728;8.796;2023-07-08T04:16:52;20.50;64.80
3069;DHT22;1545;51.728;8.796;2023-07-08T04:19:19;20.50;64.70
3069;DHT22;1545;51.728;8.796;2023-07-08T04:21:45;21.50;62.00
3069;DHT22;1545;51.728;8.796;2023-07-08T04:24:12;22.10;60.40
3069;DHT22;1545;51.728;8.796;2023-07-08T04:26:38;22.00;60.30
3069;DHT22;1545;51.728;8.796;2023-07-08T04:29:18;21.40;61.80
3069;DHT22;1545;51.728;8.796;2023-07-08T04:31:44;21.30;62.50
3069;DHT22;1545;51.728;8.796;2023-07-08T04:34:09;21.30;62.60
3069;DHT22;1545;51.728;8.796;2023-07-08T04:36:36;21.20;62.80
3069;DHT22;1545;51.728;8.796;2023-07-08T04:39:03;21.30;63.20
3069;DHT22;1545;51.728;8.796;2023-07-08T04:41:29;21.70;61.90
3069;DHT22;1545;51.728;8.796;2023-07-08T04:43:54;21.80;61.50
3069;DHT22;1545;51.728;8.796;2023-07-08T04:46:38;21.90;61.30
3069;DHT22;1545;51.728;8.796;2023-07-08T04:49:06;21.50;61.90
3069;DHT22;1545;51.728;8.796;2023-07-08T04:51:33;21.10;63.30
3069;DHT22;1545;51.728;8.796;2023-07-08T04:53:58;21.50;62.50
3069;DHT22;1545;51.728;8.796;2023-07-08T04:56:27;22.40;60.20
3069;DHT22;1545;51.728;8.796;2023-07-08T04:59:00;22.70;59.20
3069;DHT22;1545;51.728;8.796;2023-07-08T05:01:26;23.10;58.40
3069;DHT22;1545;51.728;8.796;2023-07-08T05:03:52;23.20;57.90
3069;DHT22;1545;51.728;8.796;2023-07-08T05:06:17;23.30;57.40
3069;DHT22;1545;51.728;8.796;2023-07-08T05:08:43;23.00;58.40
3069;DHT22;1545;51.728;8.796;2023-07-08T05:11:08;22.90;58.50
3069;DHT22;1545;51.728;8.796;2023-07-08T05:13:33;23.40;57.70
3069;DHT22;1545;51.728;8.796;2023-07-08T05:15:59;23.90;56.50
3069;DHT22;1545;51.728;8.796;2023-07-08T05:18:24;23.70;56.80
3069;DHT22;1545;51.728;8.796;2023-07-08T05:20:51;23.70;56.70
3069;DHT22;1545;51.728;8.796;2023-07-08T05:23:17;23.50;57.10
3069;DHT22;1545;51.728;8.796;2023-07-08T05:25:43;23.40;57.30
3069;DHT22;1545;51.728;8.796;2023-07-08T05:28:08;23.10;58.50
3069;DHT22;1545;51.728;8.796;2023-07-08T05:30:35;22.60;59.80
3069;DHT22;1545;51.728;8.796;2023-07-08T05:33:00;22.30;60.50
3069;DHT22;1545;51.728;8.796;2023-07-08T05:35:26;22.20;61.20
3069;DHT22;1545;51.728;8.796;2023-07-08T05:37:51;22.30;61.50
3069;DHT22;1545;51.728;8.796;2023-07-08T05:40:17;22.60;60.70
3069;DHT22;1545;51.728;8.796;2023-07-08T05:42:42;22.80;60.70
3069;DHT22;1545;51.728;8.796;2023-07-08T05:45:08;22.70;60.80
3069;DHT22;1545;51.728;8.796;2023-07-08T05:47:36;22.60;61.60
3069;DHT22;1545;51.728;8.796;2023-07-08T05:50:02;22.50;62.20
3069;DHT22;1545;51.728;8.796;2023-07-08T05:52:27;22.60;61.90
3069;DHT22;1545;51.728;8.796;2023-07-08T05:54:53;22.90;61.40
3069;DHT22;1545;51.728;8.796;2023-07-08T05:57:18;23.20;60.80
3069;DHT22;1545;51.728;8.796;2023-07-08T05:59:44;23.70;59.70
3069;DHT22;1545;51.728;8.796;2023-07-08T06:02:10;24.30;58.10
3069;DHT22;1545;51.728;8.796;2023-07-08T06:04:36;24.50;57.10
3069;DHT22;1545;51.728;8.796;2023-07-08T06:07:02;24.80;57.00
3069;DHT22;1545;51.728;8.796;2023-07-08T06:09:27;24.90;56.80
3069;DHT22;1545;51.728;8.796;2023-07-08T06:11:53;24.90;56.80
3069;DHT22;1545;51.728;8.796;2023-07-08T06:14:18;24.70;57.40
3069;DHT22;1545;51.728;8.796;2023-07-08T06:16:44;24.60;56.90
3069;DHT22;1545;51.728;8.796;2023-07-08T06:19:09;24.70;56.90
3069;DHT22;1545;51.728;8.796;2023-07-08T06:21:35;24.60;57.50
3069;DHT22;1545;51.728;8.796;2023-07-08T06:24:01;24.80;56.90
3069;DHT22;1545;51.728;8.796;2023-07-08T06:26:26;25.20;55.70
3069;DHT22;1545;51.728;8.796;2023-07-08T06:28:52;25.60;54.90
3069;DHT22;1545;51.728;8.796;2023-07-08T06:31:17;25.40;55.30
3069;DHT22;1545;51.728;8.796;2023-07-08T06:33:43;25.50;55.70
3069;DHT22;1545;51.728;8.796;2023-07-08T06:36:08;25.60;55.50
3069;DHT22;1545;51.728;8.796;2023-07-08T06:38:34;25.80;55.00
3069;DHT22;1545;51.728;8.796;2023-07-08T06:41:00;26.00;54.70
3069;DHT22;1545;51.728;8.796;2023-07-08T06:43:25;26.20;55.10
3069;DHT22;1545;51.728;8.796;2023-07-08T06:45:52;26.60;53.50
3069;DHT22;1545;51.728;8.796;2023-07-08T06:48:18;26.70;53.60
3069;DHT22;1545;51.728;8.796;2023-07-08T06:50:46;27.10;52.50
3069;DHT22;1545;51.728;8.796;2023-07-08T06:53:13;26.90;52.30
3069;DHT22;1545;51.728;8.796;2023-07-08T06:55:38;26.90;52.00
3069;DHT22;1545;51.728;8.796;2023-07-08T06:58:04;26.50;52.40
3069;DHT22;1545;51.728;8.796;2023-07-08T07:00:29;26.10;53.20
3069;DHT22;1545;51.728;8.796;2023-07-08T07:02:55;26.40;53.10
3069;DHT22;1545;51.728;8.796;2023-07-08T07:05:20;26.60;52.50
3069;DHT22;1545;51.728;8.796;2023-07-08T07:07:46;26.60;52.80
3069;DHT22;1545;51.728;8.796;2023-07-08T07:10:11;26.80;52.90
3069;DHT22;1545;51.728;8.796;2023-07-08T07:12:37;26.90;52.40
3069;DHT22;1545;51.728;8.796;2023-07-08T07:15:03;27.00;52.50
3069;DHT22;1545;51.728;8.796;2023-07-08T07:17:29;26.90;51.70
3069;DHT22;1545;51.728;8.796;2023-07-08T07:19:55;27.20;51.70
3069;DHT22;1545;51.728;8.796;2023-07-08T07:22:21;27.00;52.50
3069;DHT22;1545;51.728;8.796;2023-07-08T07:24:46;27.40;51.60
3069;DHT22;1545;51.728;8.796;2023-07-08T07:27:12;27.20;51.10
3069;DHT22;1545;51.728;8.796;2023-07-08T07:29:49;27.10;51.50
3069;DHT22;1545;51.728;8.796;2023-07-08T07:32:16;27.20;51.70
3069;DHT22;1545;51.728;8.796;2023-07-08T07:34:42;27.60;52.10
3069;DHT22;1545;51.728;8.796;2023-07-08T07:37:12;27.60;51.30
3069;DHT22;1545;51.728;8.796;2023-07-08T07:39:39;27.50;50.90
3069;DHT22;1545;51.728;8.796;2023-07-08T07:42:04;27.70;51.30
3069;DHT22;1545;51.728;8.796;2023-07-08T07:44:30;27.80;50.90
3069;DHT22;1545;51.728;8.796;2023-07-08T07:46:55;27.80;50.50
3069;DHT22;1545;51.728;8.796;2023-07-08T07:49:21;27.90;50.40
3069;DHT22;1545;51.728;8.796;2023-07-08T07:51:47;27.60;51.60
3069;DHT22;1545;51.728;8.796;2023-07-08T07:54:14;27.90;51.20
3069;DHT22;1545;51.728;8.796;2023-07-08T07:56:39;28.30;51.20
3069;DHT22;1545;51.728;8.796;2023-07-08T07:59:05;28.10;50.90
3069;DHT22;1545;51.728;8.796;2023-07-08T08:01:30;27.80;51.80
3069;DHT22;1545;51.728;8.796;2023-07-08T08:03:56;28.00;51.60
3069;DHT22;1545;51.728;8.796;2023-07-08T08:06:21;28.40;51.90
3069;DHT22;1545;51.728;8.796;2023-07-08T08:08:47;28.90;51.10
3069;DHT22;1545;51.728;8.796;2023-07-08T08:11:14;29.10;50.30
3069;DHT22;1545;51.728;8.796;2023-07-08T08:13:39;28.80;50.40
3069;DHT22;1545;51.728;8.796;2023-07-08T08:16:05;28.70;50.70
3069;DHT22;1545;51.728;8.796;2023-07-08T08:18:30;28.60;51.00
3069;DHT22;1545;51.728;8.796;2023-07-08T08:20:56;28.30;51.00
3069;DHT22;1545;51.728;8.796;2023-07-08T08:23:22;28.20;50.80
3069;DHT22;1545;51.728;8.796;2023-07-08T08:25:48;27.90;51.30
3069;DHT22;1545;51.728;8.796;2023-07-08T08:28:15;27.90;51.90
3069;DHT22;1545;51.728;8.796;2023-07-08T08:30:40;27.90;51.70
3069;DHT22;1545;51.728;8.796;2023-07-08T08:33:06;28.30;51.60
3069;DHT22;1545;51.728;8.796;2023-07-08T08:35:31;29.10;50.50
3069;DHT22;1545;51.728;8.796;2023-07-08T08:37:57;29.60;50.60
3069;DHT22;1545;51.728;8.796;2023-07-08T08:40:22;29.90;50.70
3069;DHT22;1545;51.728;8.796;2023-07-08T08:42:59;30.40;49.40
3069;DHT22;1545;51.728;8.796;2023-07-08T08:45:27;30.20;49.70
3069;DHT22;1545;51.728;8.796;2023-07-08T08:47:58;29.70;50.10
3069;DHT22;1545;51.728;8.796;2023-07-08T08:50:36;30.10;50.10
3069;DHT22;1545;51.728;8.796;2023-07-08T08:53:08;29.90;49.40
3069;DHT22;1545;51.728;8.796;2023-07-08T08:55:36;30.30;49.60
3069;DHT22;1545;51.728;8.796;2023-07-08T08:58:06;31.10;48.50
3069;DHT22;1545;51.728;8.796;2023-07-08T09:00:46;31.00;47.80
3069;DHT22;1545;51.728;8.796;2023-07-08T09:03:16;30.90;48.50
3069;DHT22;1545;51.728;8.796;2023-07-08T09:05:46;32.00;46.50
3069;DHT22;1545;51.728;8.796;2023-07-08T09:08:31;32.80;45.40
3069;DHT22;1545;51.728;8.796;2023-07-08T09:13:35;32.60;45.30
3069;DHT22;1545;51.728;8.796;2023-07-08T09:19:12;31.40;46.70
3069;DHT22;1545;51.728;8.796;2023-07-08T09:21:47;31.70;46.80
3069;DHT22;1545;51.728;8.796;2023-07-08T09:24:24;31.70;47.10
3069;DHT22;1545;51.728;8.796;2023-07-08T09:26:53;31.10;46.90
3069;DHT22;1545;51.728;8.796;2023-07-08T09:29:23;31.60;46.70
3069;DHT22;1545;51.728;8.796;2023-07-08T09:31:49;32.50;46.00
3069;DHT22;1545;51.728;8.796;2023-07-08T09:34:21;33.00;44.50
3069;DHT22;1545;51.728;8.796;2023-07-08T09:36:48;33.10;44.70
3069;DHT22;1545;51.728;8.796;2023-07-08T09:39:23;33.80;44.20
3069;DHT22;1545;51.728;8.796;2023-07-08T09:41:49;33.90;43.30
3069;DHT22;1545;51.728;8.796;2023-07-08T09:44:26;33.40;44.70
3069;DHT22;1545;51.728;8.796;2023-07-08T09:46:54;33.70;44.10
3069;DHT22;1545;51.728;8.796;2023-07-08T09:51:48;33.50;44.00
3069;DHT22;1545;51.728;8.796;2023-07-08T09:54:16;34.50;41.60
3069;DHT22;1545;51.728;8.796;2023-07-08T09:56:44;34.30;41.00
3069;DHT22;1545;51.728;8.796;2023-07-08T09:59:14;33.00;42.00
3069;DHT22;1545;51.728;8.796;2023-07-08T10:01:41;33.10;42.50
3069;DHT22;1545;51.728;8.796;2023-07-08T10:04:07;33.90;41.30
3069;DHT22;1545;51.728;8.796;2023-07-08T10:06:33;33.90;41.80
3069;DHT22;1545;51.728;8.796;2023-07-08T10:09:05;33.70;41.40
3069;DHT22;1545;51.728;8.796;2023-07-08T10:11:58;33.00;42.30
3069;DHT22;1545;51.728;8.796;2023-07-08T10:14:38;32.50;43.10
3069;DHT22;1545;51.728;8.796;2023-07-08T10:17:05;32.20;43.00
3069;DHT22;1545;51.728;8.796;2023-07-08T10:19:30;32.60;42.70
3069;DHT22;1545;51.728;8.796;2023-07-08T10:22:10;32.30;43.00
3069;DHT22;1545;51.728;8.796;2023-07-08T10:27:35;30.80;45.00
3069;DHT22;1545;51.728;8.796;2023-07-08T10:32:53;30.50;46.70
3069;DHT22;1545;51.728;8.796;2023-07-08T10:35:30;30.30;46.30
3069;DHT22;1545;51.728;8.796;2023-07-08T10:41:38;30.70;45.40
3069;DHT22;1545;51.728;8.796;2023-07-08T10:44:12;31.00;44.90
3069;DHT22;1545;51.728;8.796;2023-07-08T10:46:56;31.30;44.00
3069;DHT22;1545;51.728;8.796;2023-07-08T10:49:57;31.70;44.30
3069;DHT22;1545;51.728;8.796;2023-07-08T10:55:39;31.70;45.40
3069;DHT22;1545;51.728;8.796;2023-07-08T10:58:25;31.00;44.10
3069;DHT22;1545;51.728;8.796;2023-07-08T11:06:53;31.10;44.90
3069;DHT22;1545;51.728;8.796;2023-07-08T11:09:33;31.10;44.80
3069;DHT22;1545;51.728;8.796;2023-07-08T11:12:08;31.20;45.30
3069;DHT22;1545;51.728;8.796;2023-07-08T11:14:40;31.50;45.40
3069;DHT22;1545;51.728;8.796;2023-07-08T11:17:24;31.20;45.10
3069;DHT22;1545;51.728;8.796;2023-07-08T11:20:26;31.40;44.70
3069;DHT22;1545;51.728;8.796;2023-07-08T11:22:57;31.60;44.90
3069;DHT22;1545;51.728;8.796;2023-07-08T11:25:26;31.60;44.70
3069;DHT22;1545;51.728;8.796;2023-07-08T11:27:55;31.40;44.00
3069;DHT22;1545;51.728;8.796;2023-07-08T11:30:23;31.40;43.40
3069;DHT22;1545;51.728;8.796;2023-07-08T11:33:02;31.30;44.40
3069;DHT22;1545;51.728;8.796;2023-07-08T11:35:51;31.50;44.50
3069;DHT22;1545;51.728;8.796;2023-07-08T11:38:20;32.00;43.90
3069;DHT22;1545;51.728;8.796;2023-07-08T11:41:03;32.10;43.00
3069;DHT22;1545;51.728;8.796;2023-07-08T11:44:05;32.40;43.60
3069;DHT22;1545;51.728;8.796;2023-07-08T11:46:32;32.30;43.70
3069;DHT22;1545;51.728;8.796;2023-07-08T11:49:24;32.40;42.20
3069;DHT22;1545;51.728;8.796;2023-07-08T11:51:51;31.90;43.00
3069;DHT22;1545;51.728;8.796;2023-07-08T11:54:29;31.80;42.80
3069;DHT22;1545;51.728;8.796;2023-07-08T11:57:14;31.80;42.70
3069;DHT22;1545;51.728;8.796;2023-07-08T11:59:41;32.20;43.10
3069;DHT22;1545;51.728;8.796;2023-07-08T12:02:15;32.10;42.40
3069;DHT22;1545;51.728;8.796;2023-07-08T12:05:11;32.20;40.80
3069;DHT22;1545;51.728;8.796;2023-07-08T12:07:47;32.30;41.40
3069;DHT22;1545;51.728;8.796;2023-07-08T12:10:17;32.40;41.00
3069;DHT22;1545;51.728;8.796;2023-07-08T12:12:45;32.60;40.60
3069;DHT22;1545;51.728;8.796;2023-07-08T12:20:37;32.60;41.00
3069;DHT22;1545;51.728;8.796;2023-07-08T12:23:11;32.90;42.20
3069;DHT22;1545;51.728;8.796;2023-07-08T12:25:37;32.90;40.10
3069;DHT22;1545;51.728;8.796;2023-07-08T12:28:03;32.10;41.00
3069;DHT22;1545;51.728;8.796;2023-07-08T12:30:31;32.10;42.60
3069;DHT22;1545;51.728;8.796;2023-07-08T12:32:58;32.20;41.80
3069;DHT22;1545;51.728;8.796;2023-07-08T12:35:33;32.20;40.90
3069;DHT22;1545;51.728;8.796;2023-07-08T12:38:02;31.90;40.20
3069;DHT22;1545;51.728;8.796;2023-07-08T12:40:29;32.10;41.50
3069;DHT22;1545;51.728;8.796;2023-07-08T12:42:56;32.20;40.50
3069;DHT22;1545;51.728;8.796;2023-07-08T12:45:23;32.40;40.30
3069;DHT22;1545;51.728;8.796;2023-07-08T12:47:49;32.70;38.90
3069;DHT22;1545;51.728;8.796;2023-07-08T12:50:15;32.80;40.20
3069;DHT22;1545;51.728;8.796;2023-07-08T12:52:43;32.90;41.20
3069;DHT22;1545;51.728;8.796;2023-07-08T12:55:10;32.90;39.70
3069;DHT22;1545;51.728;8.796;2023-07-08T12:57:36;32.60;39.80
3069;DHT22;1545;51.728;8.796;2023-07-08T13:00:03;32.50;40.30
3069;DHT22;1545;51.728;8.796;2023-07-08T13:02:31;32.60;40.70
3069;DHT22;1545;51.728;8.796;2023-07-08T13:05:00;32.50;38.80
3069;DHT22;1545;51.728;8.796;2023-07-08T13:07:39;32.50;40.20
3069;DHT22;1545;51.728;8.796;2023-07-08T13:10:06;32.60;38.80
3069;DHT22;1545;51.728;8.796;2023-07-08T13:12:35;32.60;40.10
3069;DHT22;1545;51.728;8.796;2023-07-08T13:15:06;32.80;39.60
3069;DHT22;1545;51.728;8.796;2023-07-08T13:17:36;32.90;40.10
3069;DHT22;1545;51.728;8.796;2023-07-08T13:20:04;33.20;38.50
3069;DHT22;1545;51.728;8.796;2023-07-08T13:22:30;33.20;37.90
3069;DHT22;1545;51.728;8.796;2023-07-08T13:25:02;32.90;37.20
3069;DHT22;1545;51.728;8.796;2023-07-08T13:27:28;32.90;39.50
3069;DHT22;1545;51.728;8.796;2023-07-08T13:29:54;33.00;38.70
3069;DHT22;1545;51.728;8.796;2023-07-08T13:32:29;33.30;38.90
3069;DHT22;1545;51.728;8.796;2023-07-08T13:34:56;33.50;38.00
3069;DHT22;1545;51.728;8.796;2023-07-08T13:37:21;33.70;38.90
3069;DHT22;1545;51.728;8.796;2023-07-08T13:39:52;33.90;36.80
3069;DHT22;1545;51.728;8.796;2023-07-08T13:42:19;33.70;37.60
3069;DHT22;1545;51.728;8.796;2023-07-08T13:44:46;33.40;39.80
3069;DHT22;1545;51.728;8.796;2023-07-08T13:47:29;33.10;39.70
3069;DHT22;1545;51.728;8.796;2023-07-08T13:50:16;32.90;40.60
3069;DHT22;1545;51.728;8.796;2023-07-08T13:52:44;32.80;40.70
3069;DHT22;1545;51.728;8.796;2023-07-08T13:55:17;32.90;40.50
3069;DHT22;1545;51.728;8.796;2023-07-08T13:57:44;33.30;39.60
3069;DHT22;1545;51.728;8.796;2023-07-08T14:00:11;33.50;39.40
3069;DHT22;1545;51.728;8.796;2023-07-08T14:02:39;33.20;40.10
3069;DHT22;1545;51.728;8.796;2023-07-08T14:05:12;33.10;39.20
3069;DHT22;1545;51.728;8.796;2023-07-08T14:07:39;33.30;38.80
3069;DHT22;1545;51.728;8.796;2023-07-08T14:10:22;33.20;39.10
3069;DHT22;1545;51.728;8.796;2023-07-08T14:12:49;33.30;39.80
3069;DHT22;1545;51.728;8.796;2023-07-08T14:15:14;33.40;39.60
3069;DHT22;1545;51.728;8.796;2023-07-08T14:17:40;33.50;39.30
3069;DHT22;1545;51.728;8.796;2023-07-08T14:20:13;33.50;39.20
3069;DHT22;1545;51.728;8.796;2023-07-08T14:22:40;33.60;39.50
3069;DHT22;1545;51.728;8.796;2023-07-08T14:25:08;33.80;38.90
3069;DHT22;1545;51.728;8.796;2023-07-08T14:27:34;34.10;38.50
3069;DHT22;1545;51.728;8.796;2023-07-08T14:29:59;34.10;38.40
3069;DHT22;1545;51.728;8.796;2023-07-08T14:32:29;34.00;38.40
3069;DHT22;1545;51.728;8.796;2023-07-08T14:35:23;33.80;39.10
3069;DHT22;1545;51.728;8.796;2023-07-08T14:37:49;33.70;39.50
3069;DHT22;1545;51.728;8.796;2023-07-08T14:40:25;33.30;40.10
3069;DHT22;1545;51.728;8.796;2023-07-08T14:43:04;33.00;40.60
3069;DHT22;1545;51.728;8.796;2023-07-08T14:45:37;33.10;40.40
3069;DHT22;1545;51.728;8.796;2023-07-08T14:48:11;33.10;40.50
3069;DHT22;1545;51.728;8.796;2023-07-08T14:50:36;33.10;41.20
3069;DHT22;1545;51.728;8.796;2023-07-08T14:53:02;33.10;40.50
3069;DHT22;1545;51.728;8.796;2023-07-08T14:55:28;32.90;41.00
3069;DHT22;1545;51.728;8.796;2023-07-08T14:57:53;32.90;40.90
3069;DHT22;1545;51.728;8.796;2023-07-08T15:00:20;32.70;40.40
3069;DHT22;1545;51.728;8.796;2023-07-08T15:02:47;33.00;40.20
3069;DHT22;1545;51.728;8.796;2023-07-08T15:05:24;33.20;40.40
3069;DHT22;1545;51.728;8.796;2023-07-08T15:07:55;33.50;39.10
3069;DHT22;1545;51.728;8.796;2023-07-08T15:10:25;33.60;39.10
3069;DHT22;1545;51.728;8.796;2023-07-08T15:12:51;33.80;40.00
3069;DHT22;1545;51.728;8.796;2023-07-08T15:15:31;33.60;41.10
3069;DHT22;1545;51.728;8.796;2023-07-08T15:17:58;33.60;41.30
3069;DHT22;1545;51.728;8.796;2023-07-08T15:20:24;33.50;41.60
3069;DHT22;1545;51.728;8.796;2023-07-08T15:22:50;33.40;41.10
3069;DHT22;1545;51.728;8.796;2023-07-08T15:25:16;33.20;40.50
3069;DHT22;1545;51.728;8.796;2023-07-08T15:27:45;33.10;42.10
3069;DHT22;1545;51.728;8.796;2023-07-08T15:30:21;33.20;40.90
3069;DHT22;1545;51.728;8.796;2023-07-08T15:32:47;33.00;40.80
3069;DHT22;1545;51.728;8.796;2023-07-08T15:35:21;33.20;42.90
3069;DHT22;1545;51.728;8.796;2023-07-08T15:37:49;33.10;41.70
3069;DHT22;1545;51.728;8.796;2023-07-08T15:40:18;33.20;41.50
3069;DHT22;1545;51.728;8.796;2023-07-08T15:42:46;33.40;40.50
3069;DHT22;1545;51.728;8.796;2023-07-08T15:45:15;33.40;41.00
3069;DHT22;1545;51.728;8.796;2023-07-08T15:47:41;33.20;41.30
3069;DHT22;1545;51.728;8.796;2023-07-08T15:50:16;33.00;41.10
3069;DHT22;1545;51.728;8.796;2023-07-08T15:52:42;33.00;42.20
3069;DHT22;1545;51.728;8.796;2023-07-08T15:55:10;33.30;41.90
3069;DHT22;1545;51.728;8.796;2023-07-08T15:57:48;33.20;41.30
3069;DHT22;1545;51.728;8.796;2023-07-08T16:00:21;33.20;41.40
3069;DHT22;1545;51.728;8.796;2023-07-08T16:02:51;33.30;42.30
3069;DHT22;1545;51.728;8.796;2023-07-08T16:05:18;33.50;41.50
3069;DHT22;1545;51.728;8.796;2023-07-08T16:07:45;33.50;42.00
3069;DHT22;1545;51.728;8.796;2023-07-08T16:10:11;33.50;40.90
3069;DHT22;1545;51.728;8.796;2023-07-08T16:12:37;33.10;41.50
3069;DHT22;1545;51.728;8.796;2023-07-08T16:15:03;33.10;41.70
3069;DHT22;1545;51.728;8.796;2023-07-08T16:17:37;33.10;42.40
3069;DHT22;1545;51.728;8.796;2023-07-08T16:20:19;33.10;42.60
3069;DHT22;1545;51.728;8.796;2023-07-08T16:22:45;33.00;41.40
3069;DHT22;1545;51.728;8.796;2023-07-08T16:25:13;32.90;41.30
3069;DHT22;1545;51.728;8.796;2023-07-08T16:27:39;32.60;41.70
3069;DHT22;1545;51.728;8.796;2023-07-08T16:30:07;32.40;41.50
3069;DHT22;1545;51.728;8.796;2023-07-08T16:32:34;32.50;42.10
3069;DHT22;1545;51.728;8.796;2023-07-08T16:34:59;32.60;42.20
3069;DHT22;1545;51.728;8.796;2023-07-08T16:37:25;32.80;41.90
3069;DHT22;1545;51.728;8.796;2023-07-08T16:39:50;32.90;41.80
3069;DHT22;1545;51.728;8.796;2023-07-08T16:42:16;32.90;42.40
3069;DHT22;1545;51.728;8.796;2023-07-08T16:44:42;33.00;42.30
3069;DHT22;1545;51.728;8.796;2023-07-08T16:47:08;32.70;41.40
3069;DHT22;1545;51.728;8.796;2023-07-08T16:49:34;32.80;42.90
3069;DHT22;1545;51.728;8.796;2023-07-08T16:51:59;33.00;42.70